sensor_id;sensor_type;location;lat;lon;timestamp;P1;durP1;ratioP1;P2;durP2;ratioP2
5630;SDS011;2837;50.990;7.124;2023-04-03T05:02:16;159.03;;;6.93;;
5630;SDS011;2837;50.990;7.124;2023-04-03T05:04:42;159.83;;;6.93;;
5630;SDS011;2837;50.990;7.124;2023-04-03T05:07:07;158.70;;;7.27;;
5630;SDS011;2837;50.990;7.124;2023-04-03T05:09:33;161.50;;;7.07;;
5630;SDS011;2837;50.990;7.124;2023-04-03T05:11:58;158.37;;;7.00;;
5630;SDS011;2837;50.990;7.124;2023-04-03T05:14:24;159.53;;;7.40;;
5630;SDS011;2837;50.990;7.124;2023-04-03T05:16:50;158.27;;;7.17;;
5630;SDS011;2837;50.990;7.124;2023-04-03T05:19:18;157.87;;;7.13;;
5630;SDS011;2837;50.990;7.124;2023-04-03T05:21:45;159.43;;;7.60;;
5630;SDS011;2837;50.990;7.124;2023-04-03T05:24:10;158.17;;;7.20;;
5630;SDS011;2837;50.990;7.124;2023-04-03T05:26:36;159.80;;;7.80;;
5630;SDS011;2837;50.990;7.124;2023-04-03T05:29:01;158.37;;;7.10;;
5630;SDS011;2837;50.990;7.124;2023-04-03T05:31:27;157.97;;;7.30;;
5630;SDS011;2837;50.990;7.124;2023-04-03T05:33:54;158.70;;;7.20;;
5630;SDS011;2837;50.990;7.124;2023-04-03T05:36:20;158.10;;;6.77;;
5630;SDS011;2837;50.990;7.124;2023-04-03T05:38:46;159.40;;;7.40;;
5630;SDS011;2837;50.990;7.124;2023-04-03T05:41:12;160.23;;;7.57;;
5630;SDS011;2837;50.990;7.124;2023-04-03T05:43:38;159.67;;;7.80;;
5630;SDS011;2837;50.990;7.124;2023-04-03T05:46:04;157.80;;;7.10;;
5630;SDS011;2837;50.990;7.124;2023-04-03T05:48:34;159.57;;;7.40;;
5630;SDS011;2837;50.990;7.124;2023-04-03T05:51:00;159.60;;;7.40;;
5630;SDS011;2837;50.990;7.124;2023-04-03T05:53:27;159.17;;;7.20;;
5630;SDS011;2837;50.990;7.124;2023-04-03T05:55:54;159.37;;;7.50;;
5630;SDS011;2837;50.990;7.124;2023-04-03T05:58:19;158.47;;;7.10;;
5630;SDS011;2837;50.990;7.124;2023-04-03T06:00:45;160.67;;;7.37;;
5630;SDS011;2837;50.990;7.124;2023-04-03T06:03:10;160.43;;;7.20;;
5630;SDS011;2837;50.990;7.124;2023-04-03T06:05:36;159.47;;;7.23;;
5630;SDS011;2837;50.990;7.124;2023-04-03T06:08:02;158.50;;;7.53;;
5630;SDS011;2837;50.990;7.124;2023-04-03T06:10:28;158.57;;;7.20;;
5630;SDS011;2837;50.990;7.124;2023-04-03T06:12:53;158.83;;;7.13;;
5630;SDS011;2837;50.990;7.124;2023-04-03T06:15:19;160.50;;;7.30;;
5630;SDS011;2837;50.990;7.124;2023-04-03T06:17:45;159.43;;;7.17;;
5630;SDS011;2837;50.990;7.124;2023-04-03T06:20:12;159.10;;;7.40;;
5630;SDS011;2837;50.990;7.124;2023-04-03T06:22:38;159.50;;;7.50;;
5630;SDS011;2837;50.990;7.124;2023-04-03T06:25:04;160.73;;;8.30;;
5630;SDS011;2837;50.990;7.124;2023-04-03T06:27:31;158.80;;;6.60;;
5630;SDS011;2837;50.990;7.124;2023-04-03T06:29:56;158.27;;;7.50;;
5630;SDS011;2837;50.990;7.124;2023-04-03T06:32:22;159.40;;;7.70;;
5630;SDS011;2837;50.990;7.124;2023-04-03T06:34:48;157.97;;;7.00;;
5630;SDS011;2837;50.990;7.124;2023-04-03T06:37:17;157.93;;;7.17;;
5630;SDS011;2837;50.990;7.124;2023-04-03T06:39:45;163.10;;;7.33;;
5630;SDS011;2837;50.990;7.124;2023-04-03T06:42:11;159.40;;;7.93;;
5630;SDS011;2837;50.990;7.124;2023-04-03T06:44:37;159.47;;;7.33;;
5630;SDS011;2837;50.990;7.124;2023-04-03T06:47:02;158.57;;;7.13;;
5630;SDS011;2837;50.990;7.124;2023-04-03T06:49:28;158.07;;;6.97;;
5630;SDS011;2837;50.990;7.124;2023-04-03T06:51:54;160.70;;;7.20;;
5630;SDS011;2837;50.990;7.124;2023-04-03T06:54:21;157.87;;;6.93;;
5630;SDS011;2837;50.990;7.124;2023-04-03T06:56:46;159.17;;;7.60;;
5630;SDS011;2837;50.990;7.124;2023-04-03T06:59:12;160.10;;;7.13;;
5630;SDS011;2837;50.990;7.124;2023-04-03T07:01:41;158.77;;;7.23;;
5630;SDS011;2837;50.990;7.124;2023-04-03T07:04:06;161.57;;;7.87;;
5630;SDS011;2837;50.990;7.124;2023-04-03T07:06:33;158.37;;;7.07;;
5630;SDS011;2837;50.990;7.124;2023-04-03T07:08:59;160.70;;;6.77;;
5630;SDS011;2837;50.990;7.124;2023-04-03T07:11:25;159.70;;;7.00;;
5630;SDS011;2837;50.990;7.124;2023-04-03T07:13:51;160.87;;;7.23;;
5630;SDS011;2837;50.990;7.124;2023-04-03T07:16:17;159.07;;;7.00;;
5630;SDS011;2837;50.990;7.124;2023-04-03T07:18:43;163.07;;;7.17;;
5630;SDS011;2837;50.990;7.124;2023-04-03T07:21:09;157.90;;;7.00;;
5630;SDS011;2837;50.990;7.124;2023-04-03T07:23:35;163.73;;;7.40;;
5630;SDS011;2837;50.990;7.124;2023-04-03T07:26:01;157.67;;;7.10;;
5630;SDS011;2837;50.990;7.124;2023-04-03T07:28:26;158.67;;;7.03;;
5630;SDS011;2837;50.990;7.124;2023-04-03T07:30:53;157.93;;;7.23;;
5630;SDS011;2837;50.990;7.124;2023-04-03T07:33:28;158.47;;;7.23;;
5630;SDS011;2837;50.990;7.124;2023-04-03T07:35:54;157.80;;;7.00;;
5630;SDS011;2837;50.990;7.124;2023-04-03T07:38:20;158.07;;;7.20;;
5630;SDS011;2837;50.990;7.124;2023-04-03T07:40:49;158.03;;;6.90;;
5630;SDS011;2837;50.990;7.124;2023-04-03T07:43:17;158.60;;;6.80;;
5630;SDS011;2837;50.990;7.124;2023-04-03T07:45:45;160.20;;;7.00;;
5630;SDS011;2837;50.990;7.124;2023-04-03T07:48:12;158.07;;;7.00;;
5630;SDS011;2837;50.990;7.124;2023-04-03T07:50:41;159.00;;;6.97;;
5630;SDS011;2837;50.990;7.124;2023-04-03T07:53:06;156.97;;;6.57;;
5630;SDS011;2837;50.990;7.124;2023-04-03T07:55:32;157.37;;;6.50;;
5630;SDS011;2837;50.990;7.124;2023-04-03T07:57:59;157.17;;;6.60;;
5630;SDS011;2837;50.990;7.124;2023-04-03T08:00:24;158.63;;;6.67;;
5630;SDS011;2837;50.990;7.124;2023-04-03T08:02:50;162.07;;;7.53;;
5630;SDS011;2837;50.990;7.124;2023-04-03T08:05:19;159.67;;;6.47;;
5630;SDS011;2837;50.990;7.124;2023-04-03T08:07:46;158.07;;;7.13;;
5630;SDS011;2837;50.990;7.124;2023-04-03T08:10:12;160.97;;;6.63;;
5630;SDS011;2837;50.990;7.124;2023-04-03T08:12:38;157.83;;;6.63;;
5630;SDS011;2837;50.990;7.124;2023-04-03T08:15:04;159.27;;;6.90;;
5630;SDS011;2837;50.990;7.124;2023-04-03T08:17:30;157.93;;;6.80;;
5630;SDS011;2837;50.990;7.124;2023-04-03T08:19:55;157.27;;;6.87;;
5630;SDS011;2837;50.990;7.124;2023-04-03T08:22:21;158.97;;;7.10;;
5630;SDS011;2837;50.990;7.124;2023-04-03T08:24:46;158.20;;;6.70;;
5630;SDS011;2837;50.990;7.124;2023-04-03T08:27:12;157.20;;;6.67;;
5630;SDS011;2837;50.990;7.124;2023-04-03T08:29:38;156.67;;;6.50;;
5630;SDS011;2837;50.990;7.124;2023-04-03T08:32:04;156.20;;;6.23;;
5630;SDS011;2837;50.990;7.124;2023-04-03T08:34:30;159.50;;;6.70;;
5630;SDS011;2837;50.990;7.124;2023-04-03T08:36:59;156.40;;;6.60;;
5630;SDS011;2837;50.990;7.124;2023-04-03T08:39:25;156.87;;;6.30;;
5630;SDS011;2837;50.990;7.124;2023-04-03T08:41:51;157.20;;;6.40;;
5630;SDS011;2837;50.990;7.124;2023-04-03T08:47:20;158.00;;;6.60;;
5630;SDS011;2837;50.990;7.124;2023-04-03T08:50:00;156.63;;;6.40;;
5630;SDS011;2837;50.990;7.124;2023-04-03T08:52:45;155.60;;;6.37;;
5630;SDS011;2837;50.990;7.124;2023-04-03T08:55:22;158.90;;;6.73;;
5630;SDS011;2837;50.990;7.124;2023-04-03T08:57:49;156.67;;;6.77;;
5630;SDS011;2837;50.990;7.124;2023-04-03T09:00:23;155.37;;;6.10;;
5630;SDS011;2837;50.990;7.124;2023-04-03T09:02:55;157.77;;;6.00;;
5630;SDS011;2837;50.990;7.124;2023-04-03T09:08:29;156.37;;;6.33;;
5630;SDS011;2837;50.990;7.124;2023-04-03T09:11:06;156.87;;;6.63;;
5630;SDS011;2837;50.990;7.124;2023-04-03T09:22:46;156.17;;;6.40;;
5630;SDS011;2837;50.990;7.124;2023-04-03T09:25:01;155.67;;;6.37;;
5630;SDS011;2837;50.990;7.124;2023-04-03T09:27:32;155.90;;;6.20;;
5630;SDS011;2837;50.990;7.124;2023-04-03T09:29:58;155.10;;;6.40;;
5630;SDS011;2837;50.990;7.124;2023-04-03T09:32:27;155.27;;;6.20;;
5630;SDS011;2837;50.990;7.124;2023-04-03T09:35:02;156.40;;;6.80;;
5630;SDS011;2837;50.990;7.124;2023-04-03T09:37:48;155.83;;;6.40;;
5630;SDS011;2837;50.990;7.124;2023-04-03T09:42:51;156.03;;;6.40;;
5630;SDS011;2837;50.990;7.124;2023-04-03T09:45:51;155.60;;;6.90;;
5630;SDS011;2837;50.990;7.124;2023-04-03T09:50:52;155.50;;;6.70;;
5630;SDS011;2837;50.990;7.124;2023-04-03T09:53:37;154.67;;;6.10;;
5630;SDS011;2837;50.990;7.124;2023-04-03T09:56:26;154.77;;;6.07;;
5630;SDS011;2837;50.990;7.124;2023-04-03T09:59:07;154.90;;;6.67;;
5630;SDS011;2837;50.990;7.124;2023-04-03T10:01:41;157.97;;;6.30;;
5630;SDS011;2837;50.990;7.124;2023-04-03T10:04:20;154.73;;;6.77;;
5630;SDS011;2837;50.990;7.124;2023-04-03T10:06:51;154.67;;;6.97;;
5630;SDS011;2837;50.990;7.124;2023-04-03T10:09:28;154.37;;;6.30;;
5630;SDS011;2837;50.990;7.124;2023-04-03T10:14:37;155.33;;;6.50;;
5630;SDS011;2837;50.990;7.124;2023-04-03T10:19:39;156.43;;;6.63;;
5630;SDS011;2837;50.990;7.124;2023-04-03T10:24:50;156.13;;;7.00;;
5630;SDS011;2837;50.990;7.124;2023-04-03T10:27:48;155.47;;;6.70;;
5630;SDS011;2837;50.990;7.124;2023-04-03T10:36:12;155.73;;;6.70;;
5630;SDS011;2837;50.990;7.124;2023-04-03T10:41:47;154.53;;;6.40;;
5630;SDS011;2837;50.990;7.124;2023-04-03T10:44:20;154.07;;;6.50;;
5630;SDS011;2837;50.990;7.124;2023-04-03T10:47:02;157.57;;;6.60;;
5630;SDS011;2837;50.990;7.124;2023-04-03T10:52:09;153.67;;;6.13;;
5630;SDS011;2837;50.990;7.124;2023-04-03T10:57:54;155.43;;;6.23;;
5630;SDS011;2837;50.990;7.124;2023-04-03T11:01:05;153.30;;;6.30;;
5630;SDS011;2837;50.990;7.124;2023-04-03T11:03:26;154.67;;;6.73;;
5630;SDS011;2837;50.990;7.124;2023-04-03T11:05:57;154.17;;;6.50;;
5630;SDS011;2837;50.990;7.124;2023-04-03T11:08:33;154.53;;;6.07;;
5630;SDS011;2837;50.990;7.124;2023-04-03T11:11:15;153.27;;;6.00;;
5630;SDS011;2837;50.990;7.124;2023-04-03T11:13:48;154.40;;;6.47;;
5630;SDS011;2837;50.990;7.124;2023-04-03T11:16:30;153.37;;;6.07;;
5630;SDS011;2837;50.990;7.124;2023-04-03T11:21:56;153.37;;;6.20;;
5630;SDS011;2837;50.990;7.124;2023-04-03T11:24:27;153.47;;;6.20;;
5630;SDS011;2837;50.990;7.124;2023-04-03T11:26:56;155.57;;;6.43;;
5630;SDS011;2837;50.990;7.124;2023-04-03T11:29:25;153.50;;;6.70;;
5630;SDS011;2837;50.990;7.124;2023-04-03T11:34:37;153.87;;;6.63;;
5630;SDS011;2837;50.990;7.124;2023-04-03T11:37:14;153.50;;;6.37;;
5630;SDS011;2837;50.990;7.124;2023-04-03T11:39:53;153.47;;;6.90;;
5630;SDS011;2837;50.990;7.124;2023-04-03T11:42:34;153.30;;;6.57;;
5630;SDS011;2837;50.990;7.124;2023-04-03T11:47:53;153.20;;;6.37;;
5630;SDS011;2837;50.990;7.124;2023-04-03T11:58:17;160.10;;;6.30;;
5630;SDS011;2837;50.990;7.124;2023-04-03T12:16:23;152.67;;;6.20;;
5630;SDS011;2837;50.990;7.124;2023-04-03T12:29:42;154.07;;;6.50;;
5630;SDS011;2837;50.990;7.124;2023-04-03T12:38:00;153.97;;;6.27;;
5630;SDS011;2837;50.990;7.124;2023-04-03T12:46:28;153.40;;;6.30;;
5630;SDS011;2837;50.990;7.124;2023-04-03T12:49:12;153.00;;;6.47;;
5630;SDS011;2837;50.990;7.124;2023-04-03T12:52:00;153.30;;;6.30;;
5630;SDS011;2837;50.990;7.124;2023-04-03T12:54:37;153.23;;;6.60;;
5630;SDS011;2837;50.990;7.124;2023-04-03T12:57:21;154.37;;;6.70;;
5630;SDS011;2837;50.990;7.124;2023-04-03T12:59:50;153.07;;;6.60;;
5630;SDS011;2837;50.990;7.124;2023-04-03T13:02:26;152.53;;;6.10;;
5630;SDS011;2837;50.990;7.124;2023-04-03T13:04:55;153.27;;;6.70;;
5630;SDS011;2837;50.990;7.124;2023-04-03T13:07:39;153.17;;;6.37;;
5630;SDS011;2837;50.990;7.124;2023-04-03T13:12:32;153.03;;;6.27;;
5630;SDS011;2837;50.990;7.124;2023-04-03T13:15:00;153.93;;;6.53;;
5630;SDS011;2837;50.990;7.124;2023-04-03T13:17:38;153.33;;;6.30;;
5630;SDS011;2837;50.990;7.124;2023-04-03T13:20:16;153.07;;;6.50;;
5630;SDS011;2837;50.990;7.124;2023-04-03T13:22:53;152.90;;;6.70;;
5630;SDS011;2837;50.990;7.124;2023-04-03T13:25:20;152.57;;;6.30;;
5630;SDS011;2837;50.990;7.124;2023-04-03T13:27:47;152.47;;;6.40;;
5630;SDS011;2837;50.990;7.124;2023-04-03T13:32:46;152.37;;;6.60;;
5630;SDS011;2837;50.990;7.124;2023-04-03T13:35:31;153.27;;;6.57;;
5630;SDS011;2837;50.990;7.124;2023-04-03T13:38:01;153.03;;;6.70;;
5630;SDS011;2837;50.990;7.124;2023-04-03T13:40:30;153.00;;;6.90;;
5630;SDS011;2837;50.990;7.124;2023-04-03T13:43:06;154.37;;;6.40;;
5630;SDS011;2837;50.990;7.124;2023-04-03T13:45:54;153.10;;;6.93;;
5630;SDS011;2837;50.990;7.124;2023-04-03T13:48:21;162.63;;;6.90;;
5630;SDS011;2837;50.990;7.124;2023-04-03T13:50:55;152.27;;;6.53;;
5630;SDS011;2837;50.990;7.124;2023-04-03T13:53:28;153.07;;;6.70;;
5630;SDS011;2837;50.990;7.124;2023-04-03T13:58:30;152.37;;;6.60;;
5630;SDS011;2837;50.990;7.124;2023-04-03T14:01:14;152.67;;;6.13;;
5630;SDS011;2837;50.990;7.124;2023-04-03T14:06:17;152.33;;;6.20;;
5630;SDS011;2837;50.990;7.124;2023-04-03T14:08:43;152.70;;;6.70;;
5630;SDS011;2837;50.990;7.124;2023-04-03T14:11:20;152.73;;;6.30;;
5630;SDS011;2837;50.990;7.124;2023-04-03T14:13:52;152.00;;;6.30;;
5630;SDS011;2837;50.990;7.124;2023-04-03T14:16:19;154.37;;;7.50;;
5630;SDS011;2837;50.990;7.124;2023-04-03T14:18:48;157.67;;;9.90;;
5630;SDS011;2837;50.990;7.124;2023-04-03T14:21:16;152.20;;;6.20;;
5630;SDS011;2837;50.990;7.124;2023-04-03T14:23:42;152.73;;;6.80;;
5630;SDS011;2837;50.990;7.124;2023-04-03T14:26:16;152.90;;;6.70;;
5630;SDS011;2837;50.990;7.124;2023-04-03T14:28:45;154.57;;;6.30;;
5630;SDS011;2837;50.990;7.124;2023-04-03T14:31:12;152.87;;;6.20;;
5630;SDS011;2837;50.990;7.124;2023-04-03T14:33:38;152.57;;;6.67;;
5630;SDS011;2837;50.990;7.124;2023-04-03T14:36:12;152.37;;;6.17;;
5630;SDS011;2837;50.990;7.124;2023-04-03T14:38:39;152.87;;;6.60;;
5630;SDS011;2837;50.990;7.124;2023-04-03T14:41:06;152.93;;;6.10;;
5630;SDS011;2837;50.990;7.124;2023-04-03T14:43:32;153.40;;;6.70;;
5630;SDS011;2837;50.990;7.124;2023-04-03T14:45:57;153.67;;;6.80;;
5630;SDS011;2837;50.990;7.124;2023-04-03T14:48:24;151.40;;;6.23;;
5630;SDS011;2837;50.990;7.124;2023-04-03T14:50:52;152.27;;;6.07;;
5630;SDS011;2837;50.990;7.124;2023-04-03T14:53:18;152.57;;;6.87;;
5630;SDS011;2837;50.990;7.124;2023-04-03T14:55:47;152.07;;;6.50;;
5630;SDS011;2837;50.990;7.124;2023-04-03T14:58:14;153.07;;;6.77;;
5630;SDS011;2837;50.990;7.124;2023-04-03T15:00:43;153.57;;;6.80;;
5630;SDS011;2837;50.990;7.124;2023-04-03T15:03:13;156.47;;;9.00;;
5630;SDS011;2837;50.990;7.124;2023-04-03T15:05:43;154.27;;;7.07;;
5630;SDS011;2837;50.990;7.124;2023-04-03T15:08:13;152.20;;;6.60;;
5630;SDS011;2837;50.990;7.124;2023-04-03T15:10:54;154.07;;;6.80;;
5630;SDS011;2837;50.990;7.124;2023-04-03T15:13:23;152.50;;;6.33;;
5630;SDS011;2837;50.990;7.124;2023-04-03T15:15:50;152.20;;;6.70;;
5630;SDS011;2837;50.990;7.124;2023-04-03T15:18:18;153.97;;;7.33;;
5630;SDS011;2837;50.990;7.124;2023-04-03T15:20:46;152.70;;;6.87;;
5630;SDS011;2837;50.990;7.124;2023-04-03T15:23:13;151.63;;;6.37;;
5630;SDS011;2837;50.990;7.124;2023-04-03T15:25:42;151.67;;;6.47;;
5630;SDS011;2837;50.990;7.124;2023-04-03T15:28:19;154.57;;;6.93;;
5630;SDS011;2837;50.990;7.124;2023-04-03T15:31:07;152.30;;;6.47;;
5630;SDS011;2837;50.990;7.124;2023-04-03T15:33:34;152.37;;;6.30;;
5630;SDS011;2837;50.990;7.124;2023-04-03T15:36:00;152.07;;;6.53;;
5630;SDS011;2837;50.990;7.124;2023-04-03T15:38:26;152.57;;;6.37;;
5630;SDS011;2837;50.990;7.124;2023-04-03T15:40:52;151.37;;;5.90;;
5630;SDS011;2837;50.990;7.124;2023-04-03T15:43:19;151.43;;;6.50;;
5630;SDS011;2837;50.990;7.124;2023-04-03T15:45:44;152.57;;;6.60;;
5630;SDS011;2837;50.990;7.124;2023-04-03T15:48:10;151.73;;;6.40;;
5630;SDS011;2837;50.990;7.124;2023-04-03T15:50:37;153.00;;;6.67;;
5630;SDS011;2837;50.990;7.124;2023-04-03T15:53:03;152.70;;;6.20;;
5630;SDS011;2837;50.990;7.124;2023-04-03T15:55:30;152.53;;;6.07;;
5630;SDS011;2837;50.990;7.124;2023-04-03T15:57:58;152.23;;;6.40;;
5630;SDS011;2837;50.990;7.124;2023-04-03T16:00:24;151.60;;;6.37;;
5630;SDS011;2837;50.990;7.124;2023-04-03T16:02:51;153.70;;;6.90;;
5630;SDS011;2837;50.990;7.124;2023-04-03T16:05:20;152.23;;;6.33;;
5630;SDS011;2837;50.990;7.124;2023-04-03T16:07:46;151.47;;;6.30;;
5630;SDS011;2837;50.990;7.124;2023-04-03T16:10:12;151.57;;;6.20;;
5630;SDS011;2837;50.990;7.124;2023-04-03T16:12:40;154.40;;;6.67;;
5630;SDS011;2837;50.990;7.124;2023-04-03T16:15:06;152.10;;;5.97;;
5630;SDS011;2837;50.990;7.124;2023-04-03T16:17:32;151.80;;;6.10;;
5630;SDS011;2837;50.990;7.124;2023-04-03T16:19:59;151.93;;;6.27;;
5630;SDS011;2837;50.990;7.124;2023-04-03T16:22:26;152.97;;;6.30;;
5630;SDS011;2837;50.990;7.124;2023-04-03T16:24:53;153.27;;;7.20;;
5630;SDS011;2837;50.990;7.124;2023-04-03T16:27:19;151.37;;;6.50;;
5630;SDS011;2837;50.990;7.124;2023-04-03T16:29:45;151.97;;;6.07;;
5630;SDS011;2837;50.990;7.124;2023-04-03T16:32:11;152.30;;;6.33;;
5630;SDS011;2837;50.990;7.124;2023-04-03T16:34:37;152.00;;;6.17;;
5630;SDS011;2837;50.990;7.124;2023-04-03T16:37:05;152.80;;;6.67;;
5630;SDS011;2837;50.990;7.124;2023-04-03T16:39:31;153.77;;;6.43;;
5630;SDS011;2837;50.990;7.124;2023-04-03T16:41:56;156.07;;;6.40;;
5630;SDS011;2837;50.990;7.124;2023-04-03T16:44:22;152.40;;;6.10;;
5630;SDS011;2837;50.990;7.124;2023-04-03T16:46:47;152.43;;;6.90;;
5630;SDS011;2837;50.990;7.124;2023-04-03T16:49:13;151.97;;;6.30;;
5630;SDS011;2837;50.990;7.124;2023-04-03T16:51:39;157.97;;;6.50;;
5630;SDS011;2837;50.990;7.124;2023-04-03T16:54:04;153.47;;;6.60;;
5630;SDS011;2837;50.990;7.124;2023-04-03T16:56:31;153.97;;;6.90;;
5630;SDS011;2837;50.990;7.124;2023-04-03T16:58:57;168.40;;;7.27;;
5630;SDS011;2837;50.990;7.124;2023-04-03T17:01:22;155.40;;;8.10;;
5630;SDS011;2837;50.990;7.124;2023-04-03T17:03:48;153.87;;;6.57;;
5630;SDS011;2837;50.990;7.124;2023-04-03T17:06:18;155.30;;;6.47;;
5630;SDS011;2837;50.990;7.124;2023-04-03T17:08:45;153.07;;;6.60;;
5630;SDS011;2837;50.990;7.124;2023-04-03T17:11:13;152.50;;;6.40;;
5630;SDS011;2837;50.990;7.124;2023-04-03T17:13:39;153.23;;;6.80;;
5630;SDS011;2837;50.990;7.124;2023-04-03T17:16:05;152.47;;;6.60;;
5630;SDS011;2837;50.990;7.124;2023-04-03T17:18:34;153.87;;;7.00;;
5630;SDS011;2837;50.990;7.124;2023-04-03T17:21:00;154.87;;;7.17;;
5630;SDS011;2837;50.990;7.124;2023-04-03T17:23:27;152.17;;;6.70;;
5630;SDS011;2837;50.990;7.124;2023-04-03T17:25:54;153.37;;;6.90;;
5630;SDS011;2837;50.990;7.124;2023-04-03T17:28:20;152.17;;;6.40;;
5630;SDS011;2837;50.990;7.124;2023-04-03T17:30:49;152.70;;;7.00;;
5630;SDS011;2837;50.990;7.124;2023-04-03T17:33:15;152.57;;;6.60;;
5630;SDS011;2837;50.990;7.124;2023-04-03T17:35:40;153.10;;;7.03;;
5630;SDS011;2837;50.990;7.124;2023-04-03T17:38:06;153.87;;;7.10;;
5630;SDS011;2837;50.990;7.124;2023-04-03T17:40:32;152.90;;;6.60;;
5630;SDS011;2837;50.990;7.124;2023-04-03T17:42:57;154.50;;;6.80;;
5630;SDS011;2837;50.990;7.124;2023-04-03T17:45:23;159.20;;;6.70;;
5630;SDS011;2837;50.990;7.124;2023-04-03T17:47:50;153.67;;;7.20;;
5630;SDS011;2837;50.990;7.124;2023-04-03T17:50:16;154.90;;;6.60;;
5630;SDS011;2837;50.990;7.124;2023-04-03T17:52:43;152.00;;;6.50;;
5630;SDS011;2837;50.990;7.124;2023-04-03T17:55:08;153.87;;;7.10;;
5630;SDS011;2837;50.990;7.124;2023-04-03T17:57:34;153.70;;;7.13;;
5630;SDS011;2837;50.990;7.124;2023-04-03T17:59:59;154.50;;;7.00;;
5630;SDS011;2837;50.990;7.124;2023-04-03T18:02:25;154.10;;;6.60;;
5630;SDS011;2837;50.990;7.124;2023-04-03T18:04:51;154.43;;;6.70;;
5630;SDS011;2837;50.990;7.124;2023-04-03T18:07:17;154.17;;;6.90;;
5630;SDS011;2837;50.990;7.124;2023-04-03T18:09:43;154.50;;;6.33;;
5630;SDS011;2837;50.990;7.124;2023-04-03T18:12:11;153.50;;;7.07;;
5630;SDS011;2837;50.990;7.124;2023-04-03T18:14:37;153.70;;;6.80;;
5630;SDS011;2837;50.990;7.124;2023-04-03T18:17:04;154.73;;;6.90;;
5630;SDS011;2837;50.990;7.124;2023-04-03T18:19:30;153.93;;;7.00;;
5630;SDS011;2837;50.990;7.124;2023-04-03T18:21:56;154.57;;;6.83;;
5630;SDS011;2837;50.990;7.124;2023-04-03T18:24:25;153.87;;;6.50;;
5630;SDS011;2837;50.990;7.124;2023-04-03T18:26:55;154.07;;;6.60;;
5630;SDS011;2837;50.990;7.124;2023-04-03T18:29:24;153.37;;;6.80;;
5630;SDS011;2837;50.990;7.124;2023-04-03T18:31:51;153.63;;;6.63;;
5630;SDS011;2837;50.990;7.124;2023-04-03T18:34:19;153.40;;;6.30;;
5630;SDS011;2837;50.990;7.124;2023-04-03T18:36:44;154.20;;;6.63;;
5630;SDS011;2837;50.990;7.124;2023-04-03T18:39:11;155.70;;;7.17;;
5630;SDS011;2837;50.990;7.124;2023-04-03T18:41:37;155.00;;;7.47;;
5630;SDS011;2837;50.990;7.124;2023-04-03T18:44:03;155.10;;;7.50;;
5630;SDS011;2837;50.990;7.124;2023-04-03T18:46:32;154.27;;;6.90;;
5630;SDS011;2837;50.990;7.124;2023-04-03T18:48:58;154.83;;;6.73;;
5630;SDS011;2837;50.990;7.124;2023-04-03T18:51:24;154.97;;;6.50;;
5630;SDS011;2837;50.990;7.124;2023-04-03T18:53:50;154.50;;;6.80;;
5630;SDS011;2837;50.990;7.124;2023-04-03T18:56:16;154.60;;;6.80;;
5630;SDS011;2837;50.990;7.124;2023-04-03T18:58:41;154.67;;;6.70;;
5630;SDS011;2837;50.990;7.124;2023-04-03T19:01:07;155.67;;;6.83;;
5630;SDS011;2837;50.990;7.124;2023-04-03T19:03:32;154.97;;;6.60;;
5630;SDS011;2837;50.990;7.124;2023-04-03T19:06:01;154.50;;;6.63;;
5630;SDS011;2837;50.990;7.124;2023-04-03T19:08:27;154.00;;;6.70;;
5630;SDS011;2837;50.990;7.124;2023-04-03T19:10:53;157.43;;;6.97;;
5630;SDS011;2837;50.990;7.124;2023-04-03T19:13:18;157.80;;;6.33;;
5630;SDS011;2837;50.990;7.124;2023-04-03T19:15:44;156.30;;;7.00;;
5630;SDS011;2837;50.990;7.124;2023-04-03T19:18:10;157.20;;;6.70;;
5630;SDS011;2837;50.990;7.124;2023-04-03T19:20:36;154.40;;;6.20;;
5630;SDS011;2837;50.990;7.124;2023-04-03T19:23:01;155.17;;;7.47;;
5630;SDS011;2837;50.990;7.124;2023-04-03T19:25:27;154.07;;;6.70;;
5630;SDS011;2837;50.990;7.124;2023-04-03T19:27:52;156.00;;;7.13;;
5630;SDS011;2837;50.990;7.124;2023-04-03T19:30:18;156.07;;;7.00;;
5630;SDS011;2837;50.990;7.124;2023-04-03T19:32:44;155.43;;;7.20;;
5630;SDS011;2837;50.990;7.124;2023-04-03T19:35:10;155.07;;;6.80;;
5630;SDS011;2837;50.990;7.124;2023-04-03T19:37:36;155.77;;;7.07;;
5630;SDS011;2837;50.990;7.124;2023-04-03T19:40:01;154.77;;;6.97;;
5630;SDS011;2837;50.990;7.124;2023-04-03T19:42:28;155.80;;;6.70;;
5630;SDS011;2837;50.990;7.124;2023-04-03T19:44:55;157.67;;;7.03;;
5630;SDS011;2837;50.990;7.124;2023-04-03T19:47:21;156.37;;;7.00;;
5630;SDS011;2837;50.990;7.124;2023-04-03T19:49:47;155.77;;;7.03;;
5630;SDS011;2837;50.990;7.124;2023-04-03T19:52:13;154.30;;;6.37;;
5630;SDS011;2837;50.990;7.124;2023-04-03T19:54:39;155.80;;;6.70;;
5630;SDS011;2837;50.990;7.124;2023-04-03T19:57:05;154.03;;;6.07;;
5630;SDS011;2837;50.990;7.124;2023-04-03T19:59:31;157.73;;;6.90;;
5630;SDS011;2837;50.990;7.124;2023-04-03T20:01:56;154.67;;;6.70;;
5630;SDS011;2837;50.990;7.124;2023-04-03T20:04:22;157.47;;;7.20;;
5630;SDS011;2837;50.990;7.124;2023-04-03T20:06:47;155.10;;;7.20;;
5630;SDS011;2837;50.990;7.124;2023-04-03T20:09:14;154.77;;;7.00;;
5630;SDS011;2837;50.990;7.124;2023-04-03T20:11:41;154.60;;;6.70;;
5630;SDS011;2837;50.990;7.124;2023-04-03T20:14:11;154.67;;;6.57;;
5630;SDS011;2837;50.990;7.124;2023-04-03T20:16:37;155.37;;;6.60;;
5630;SDS011;2837;50.990;7.124;2023-04-03T20:19:03;154.60;;;6.57;;
5630;SDS011;2837;50.990;7.124;2023-04-03T20:21:30;156.17;;;6.80;;
5630;SDS011;2837;50.990;7.124;2023-04-03T20:23:57;156.17;;;7.00;;
5630;SDS011;2837;50.990;7.124;2023-04-03T20:26:24;157.30;;;7.00;;
5630;SDS011;2837;50.990;7.124;2023-04-03T20:28:52;155.17;;;6.80;;
5630;SDS011;2837;50.990;7.124;2023-04-03T20:31:20;156.07;;;7.53;;
5630;SDS011;2837;50.990;7.124;2023-04-03T20:33:47;155.20;;;6.50;;
5630;SDS011;2837;50.990;7.124;2023-04-03T20:36:13;155.47;;;6.87;;
5630;SDS011;2837;50.990;7.124;2023-04-03T20:38:40;155.27;;;7.10;;
5630;SDS011;2837;50.990;7.124;2023-04-03T20:41:06;154.63;;;6.70;;
5630;SDS011;2837;50.990;7.124;2023-04-03T20:43:32;155.97;;;7.00;;
5630;SDS011;2837;50.990;7.124;2023-04-03T20:45:59;156.63;;;7.63;;
5630;SDS011;2837;50.990;7.124;2023-04-03T20:48:25;157.17;;;6.97;;
5630;SDS011;2837;50.990;7.124;2023-04-03T20:50:51;154.97;;;6.73;;
5630;SDS011;2837;50.990;7.124;2023-04-03T20:53:16;155.77;;;7.23;;
5630;SDS011;2837;50.990;7.124;2023-04-03T20:55:53;156.03;;;6.80;;
5630;SDS011;2837;50.990;7.124;2023-04-03T20:58:23;156.23;;;7.13;;
